createdAt,value
2018-07-02T00:00:06.382Z,14.97
2018-07-02T00:01:06.554Z,15.03
2018-07-02T00:02:06.726Z,14.96
2018-07-02T00:03:06.906Z,15.02
2018-07-02T00:04:07.085Z,15.04
2018-07-02T00:05:07.268Z,15.03
2018-07-02T00:06:07.443Z,15.02
2018-07-02T00:07:07.619Z,14.96
2018-07-02T00:08:07.793Z,14.99
2018-07-02T00:09:07.967Z,14.97
2018-07-02T00:10:08.142Z,14.96
2018-07-02T00:11:08.314Z,14.89
2018-07-02T00:12:08.531Z,15.00
2018-07-02T00:13:08.709Z,14.99
2018-07-02T00:14:08.887Z,14.94
2018-07-02T00:15:09.058Z,14.92
2018-07-02T00:16:09.249Z,15.09
2018-07-02T00:17:09.404Z,14.96
2018-07-02T00:18:09.580Z,14.99
2018-07-02T00:19:10.095Z,14.97
2018-07-02T00:20:13.609Z,15.02
2018-07-02T00:21:12.940Z,14.86
2018-07-02T00:22:10.364Z,14.86
2018-07-02T00:23:10.648Z,14.86
2018-07-02T00:24:10.692Z,14.81
2018-07-02T00:25:10.849Z,14.77
2018-07-02T00:26:11.081Z,14.63
2018-07-02T00:27:13.217Z,14.58
2018-07-02T00:28:11.375Z,14.62
2018-07-02T00:29:11.348Z,14.55
2018-07-02T00:30:11.518Z,14.45
2018-07-02T00:31:11.706Z,14.47
2018-07-02T00:32:11.876Z,14.53
2018-07-02T00:33:12.045Z,14.45
2018-07-02T00:34:12.224Z,14.41
2018-07-02T00:35:12.395Z,14.41
2018-07-02T00:36:12.570Z,14.30
2018-07-02T00:37:12.742Z,14.28
2018-07-02T00:38:12.914Z,14.18
2018-07-02T00:39:13.091Z,14.07
2018-07-02T00:40:13.264Z,14.15
2018-07-02T00:41:13.442Z,14.04
2018-07-02T00:42:13.623Z,13.90
2018-07-02T00:43:13.804Z,13.93
2018-07-02T00:44:13.974Z,13.95
2018-07-02T00:45:14.149Z,13.79
2018-07-02T00:46:14.351Z,13.92
2018-07-02T00:47:14.540Z,13.95
2018-07-02T00:48:14.724Z,13.90
2018-07-02T00:49:14.905Z,13.79
2018-07-02T00:50:15.087Z,13.81
2018-07-02T00:51:15.269Z,13.85
2018-07-02T00:52:15.440Z,13.72
2018-07-02T00:53:15.623Z,13.74
2018-07-02T00:54:15.803Z,13.70
2018-07-02T00:55:15.979Z,13.62
2018-07-02T00:56:16.158Z,13.65
2018-07-02T00:57:16.328Z,13.70
2018-07-02T00:58:16.501Z,13.62
2018-07-02T00:59:16.681Z,13.63
2018-07-02T01:00:16.856Z,13.71
2018-07-02T01:01:17.027Z,13.67
2018-07-02T01:02:17.208Z,13.68
2018-07-02T01:03:17.379Z,13.62
2018-07-02T01:04:17.549Z,13.65
2018-07-02T01:05:17.723Z,13.59
2018-07-02T01:06:17.897Z,13.52
2018-07-02T01:07:18.079Z,13.52
2018-07-02T01:08:18.256Z,13.50
2018-07-02T01:09:18.427Z,13.50
2018-07-02T01:10:18.602Z,13.57
2018-07-02T01:11:18.781Z,13.60
2018-07-02T01:12:18.959Z,13.56
2018-07-02T01:13:19.133Z,13.50
2018-07-02T01:14:19.311Z,13.47
2018-07-02T01:15:19.486Z,13.42
2018-07-02T01:16:19.666Z,13.37
2018-07-02T01:17:19.845Z,13.37
2018-07-02T01:18:20.020Z,13.37
2018-07-02T01:19:20.197Z,13.38
2018-07-02T01:20:20.368Z,13.39
2018-07-02T01:21:20.541Z,13.22
2018-07-02T01:22:20.714Z,13.18
2018-07-02T01:23:20.888Z,13.30
2018-07-02T01:24:21.061Z,13.33
2018-07-02T01:25:21.243Z,13.31
2018-07-02T01:26:21.417Z,13.31
2018-07-02T01:27:21.599Z,13.27
2018-07-02T01:28:21.768Z,13.25
2018-07-02T01:29:21.945Z,13.38
2018-07-02T01:30:22.124Z,13.22
2018-07-02T01:31:22.297Z,13.19
2018-07-02T01:32:22.480Z,13.20
2018-07-02T01:33:22.660Z,13.20
2018-07-02T01:34:22.837Z,13.20
2018-07-02T01:35:23.006Z,13.23
2018-07-02T01:36:23.185Z,13.23
2018-07-02T01:37:23.360Z,13.30
2018-07-02T01:38:23.537Z,13.28
2018-07-02T01:39:23.714Z,13.28
2018-07-02T01:40:23.893Z,13.15
2018-07-02T01:41:24.071Z,13.16
2018-07-02T01:42:24.244Z,13.03
2018-07-02T01:43:24.411Z,13.05
2018-07-02T01:44:24.589Z,13.01
2018-07-02T01:45:24.763Z,13.11
2018-07-02T01:46:24.945Z,12.94
2018-07-02T01:47:25.126Z,12.97
2018-07-02T01:48:25.293Z,13.04
2018-07-02T01:49:25.469Z,12.98
2018-07-02T01:50:25.646Z,13.00
2018-07-02T01:51:25.822Z,12.87
2018-07-02T01:52:25.990Z,12.90
2018-07-02T01:53:26.159Z,12.93
2018-07-02T01:54:26.332Z,12.91
2018-07-02T01:55:26.512Z,12.83
2018-07-02T01:56:26.683Z,12.87
2018-07-02T01:57:26.864Z,12.68
2018-07-02T01:58:27.047Z,12.72
2018-07-02T01:59:27.212Z,12.75
2018-07-02T02:00:27.386Z,12.68
2018-07-02T02:01:27.561Z,12.76
2018-07-02T02:02:27.740Z,12.86
2018-07-02T02:03:27.911Z,12.91
2018-07-02T02:04:28.102Z,12.90
2018-07-02T02:05:28.275Z,12.93
2018-07-02T02:06:28.448Z,13.01
2018-07-02T02:07:28.623Z,13.00
2018-07-02T02:08:28.787Z,12.95
2018-07-02T02:09:28.963Z,13.00
2018-07-02T02:10:29.136Z,12.93
2018-07-02T02:11:29.309Z,12.90
2018-07-02T02:12:29.487Z,12.86
2018-07-02T02:13:29.662Z,12.75
2018-07-02T02:14:29.843Z,12.76
2018-07-02T02:15:30.020Z,12.79
2018-07-02T02:16:30.196Z,12.70
2018-07-02T02:17:30.370Z,12.73
2018-07-02T02:18:30.547Z,12.68
2018-07-02T02:19:30.725Z,12.65
2018-07-02T02:20:30.904Z,12.67
2018-07-02T02:21:31.078Z,12.68
2018-07-02T02:22:31.249Z,12.70
2018-07-02T02:23:31.429Z,12.58
2018-07-02T02:24:31.597Z,12.64
2018-07-02T02:25:31.770Z,12.62
2018-07-02T02:26:31.950Z,12.58
2018-07-02T02:27:32.131Z,12.55
2018-07-02T02:28:32.300Z,12.54
2018-07-02T02:29:32.473Z,12.57
2018-07-02T02:30:32.650Z,12.42
2018-07-02T02:31:32.821Z,12.49
2018-07-02T02:32:32.995Z,12.35
2018-07-02T02:33:33.169Z,12.24
2018-07-02T02:34:33.349Z,12.24
2018-07-02T02:35:33.513Z,12.18
2018-07-02T02:36:33.690Z,12.21
2018-07-02T02:37:33.859Z,12.20
2018-07-02T02:38:34.042Z,12.22
2018-07-02T02:39:34.205Z,12.13
2018-07-02T02:40:34.382Z,12.15
2018-07-02T02:41:34.560Z,12.06
2018-07-02T02:42:34.733Z,12.03
2018-07-02T02:43:34.914Z,12.10
2018-07-02T02:44:35.093Z,12.07
2018-07-02T02:45:35.270Z,12.10
2018-07-02T02:46:35.451Z,12.10
2018-07-02T02:47:35.621Z,12.18
2018-07-02T02:48:35.795Z,12.10
2018-07-02T02:49:35.973Z,12.07
2018-07-02T02:50:36.150Z,12.09
2018-07-02T02:51:36.323Z,12.07
2018-07-02T02:52:36.495Z,12.07
2018-07-02T02:53:36.669Z,12.13
2018-07-02T02:54:36.841Z,12.06
2018-07-02T02:55:37.012Z,12.06
2018-07-02T02:56:37.188Z,12.06
2018-07-02T02:57:37.365Z,12.10
2018-07-02T02:58:37.534Z,12.18
2018-07-02T02:59:37.712Z,12.13
2018-07-02T03:00:37.882Z,12.03
2018-07-02T03:01:38.055Z,12.07
2018-07-02T03:02:38.229Z,12.10
2018-07-02T03:03:38.398Z,12.07
2018-07-02T03:04:38.571Z,12.09
2018-07-02T03:05:38.742Z,12.07
2018-07-02T03:06:38.914Z,12.07
2018-07-02T03:07:39.083Z,12.00
2018-07-02T03:08:39.260Z,11.83
2018-07-02T03:09:39.520Z,11.84
2018-07-02T03:10:39.601Z,11.86
2018-07-02T03:11:39.774Z,11.86
2018-07-02T03:12:39.945Z,11.91
2018-07-02T03:13:40.128Z,11.81
2018-07-02T03:14:40.285Z,11.80
2018-07-02T03:15:40.468Z,11.84
2018-07-02T03:16:40.647Z,11.81
2018-07-02T03:17:40.835Z,11.91
2018-07-02T03:18:41.009Z,11.86
2018-07-02T03:19:41.181Z,11.87
2018-07-02T03:20:41.353Z,11.88
2018-07-02T03:21:41.525Z,12.03
2018-07-02T03:22:41.710Z,12.03
2018-07-02T03:23:41.884Z,12.04
2018-07-02T03:24:42.067Z,12.06
2018-07-02T03:25:42.239Z,11.99
2018-07-02T03:26:42.415Z,12.04
2018-07-02T03:27:42.593Z,12.10
2018-07-02T03:28:42.759Z,12.06
2018-07-02T03:29:42.936Z,12.03
2018-07-02T03:30:43.128Z,11.99
2018-07-02T03:31:43.300Z,11.94
2018-07-02T03:32:43.482Z,11.91
2018-07-02T03:33:43.656Z,12.04
2018-07-02T03:34:43.846Z,11.95
2018-07-02T03:35:44.018Z,12.06
2018-07-02T03:36:44.200Z,11.88
2018-07-02T03:37:44.373Z,11.87
2018-07-02T03:38:44.550Z,11.90
2018-07-02T03:39:44.719Z,11.81
2018-07-02T03:40:44.895Z,11.84
2018-07-02T03:41:45.071Z,11.87
2018-07-02T03:42:45.242Z,11.87
2018-07-02T03:43:45.413Z,11.77
2018-07-02T03:44:45.588Z,11.87
2018-07-02T03:45:45.772Z,11.81
2018-07-02T03:46:45.947Z,11.91
2018-07-02T03:47:46.114Z,11.84
2018-07-02T03:48:46.286Z,11.90
2018-07-02T03:49:46.462Z,11.91
2018-07-02T03:50:48.171Z,11.99
2018-07-02T03:51:48.678Z,11.99
2018-07-02T03:52:49.008Z,11.95
2018-07-02T03:53:49.416Z,12.06
2018-07-02T03:54:48.888Z,12.02
2018-07-02T03:55:48.305Z,12.03
2018-07-02T03:56:47.482Z,12.12
2018-07-02T03:57:51.143Z,12.09
2018-07-02T03:58:49.697Z,12.04
2018-07-02T03:59:49.202Z,12.21
2018-07-02T04:00:49.894Z,12.18
2018-07-02T04:01:53.896Z,12.24
2018-07-02T04:02:50.290Z,12.22
2018-07-02T04:03:48.653Z,12.20
2018-07-02T04:04:48.831Z,12.36
2018-07-02T04:05:49.008Z,12.42
2018-07-02T04:06:49.179Z,12.24
2018-07-02T04:07:49.346Z,12.32
2018-07-02T04:08:49.521Z,12.39
2018-07-02T04:09:49.692Z,12.31
2018-07-02T04:10:49.869Z,12.31
2018-07-02T04:11:50.045Z,12.29
2018-07-02T04:12:50.359Z,12.36
2018-07-02T04:13:50.363Z,12.42
2018-07-02T04:14:50.540Z,12.53
2018-07-02T04:15:50.710Z,12.57
2018-07-02T04:16:50.897Z,12.64
2018-07-02T04:17:51.076Z,12.65
2018-07-02T04:18:51.829Z,12.73
2018-07-02T04:19:51.394Z,12.73
2018-07-02T04:20:51.648Z,12.79
2018-07-02T04:21:51.701Z,12.85
2018-07-02T04:22:51.873Z,12.93
2018-07-02T04:23:52.108Z,12.93
2018-07-02T04:24:52.273Z,12.94
2018-07-02T04:25:52.483Z,13.01
2018-07-02T04:26:52.623Z,13.03
2018-07-02T04:27:52.813Z,12.97
2018-07-02T04:28:52.976Z,12.98
2018-07-02T04:29:53.161Z,13.08
2018-07-02T04:30:53.346Z,13.04
2018-07-02T04:31:53.529Z,13.13
2018-07-02T04:32:53.696Z,13.03
2018-07-02T04:33:53.879Z,13.15
2018-07-02T04:34:54.049Z,13.19
2018-07-02T04:35:54.224Z,13.22
2018-07-02T04:36:54.395Z,13.33
2018-07-02T04:37:54.571Z,13.33
2018-07-02T04:38:54.752Z,13.39
2018-07-02T04:39:54.929Z,13.49
2018-07-02T04:40:55.116Z,13.54
2018-07-02T04:41:55.291Z,13.59
2018-07-02T04:42:55.482Z,13.54
2018-07-02T04:43:55.660Z,13.65
2018-07-02T04:44:55.840Z,13.67
2018-07-02T04:45:56.019Z,13.68
2018-07-02T04:46:56.249Z,13.86
2018-07-02T04:47:56.326Z,13.78
2018-07-02T04:48:56.517Z,13.87
2018-07-02T04:49:56.719Z,14.03
2018-07-02T04:50:56.894Z,13.99
2018-07-02T04:51:57.881Z,14.05
2018-07-02T04:52:59.260Z,14.08
2018-07-02T04:53:58.919Z,14.22
2018-07-02T04:54:59.795Z,14.26
2018-07-02T04:55:59.883Z,14.37
2018-07-02T04:56:57.915Z,14.44
2018-07-02T04:58:00.604Z,14.37
2018-07-02T04:58:58.995Z,14.58
2018-07-02T04:59:59.102Z,14.51
2018-07-02T05:00:59.954Z,14.48
2018-07-02T05:01:58.851Z,14.60
2018-07-02T05:02:59.071Z,14.70
2018-07-02T05:03:59.161Z,14.77
2018-07-02T05:04:59.377Z,14.92
2018-07-02T05:05:59.575Z,15.02
2018-07-02T05:06:59.821Z,15.02
2018-07-02T05:07:59.882Z,15.02
2018-07-02T05:09:00.084Z,15.14
2018-07-02T05:10:00.390Z,15.22
2018-07-02T05:11:00.456Z,15.28
2018-07-02T05:12:00.651Z,15.27
2018-07-02T05:13:00.862Z,15.29
2018-07-02T05:14:01.760Z,15.40
2018-07-02T05:15:01.103Z,15.43
2018-07-02T05:16:01.343Z,15.54
2018-07-02T05:17:01.608Z,15.67
2018-07-02T05:18:01.573Z,15.64
2018-07-02T05:19:03.304Z,15.73
2018-07-02T05:20:02.208Z,15.67
2018-07-02T05:21:02.309Z,15.84
2018-07-02T05:22:02.377Z,15.86
2018-07-02T05:23:02.594Z,15.94
2018-07-02T05:24:02.674Z,16.01
2018-07-02T05:25:02.853Z,15.97
2018-07-02T05:26:03.034Z,15.95
2018-07-02T05:27:03.298Z,16.05
2018-07-02T05:28:03.371Z,16.13
2018-07-02T05:29:03.578Z,16.29
2018-07-02T05:30:03.644Z,16.28
2018-07-02T05:31:03.827Z,16.39
2018-07-02T05:32:03.990Z,16.47
2018-07-02T05:33:04.168Z,16.50
2018-07-02T05:34:04.336Z,16.56
2018-07-02T05:35:04.528Z,16.72
2018-07-02T05:36:05.064Z,16.76
2018-07-02T05:37:05.003Z,16.81
2018-07-02T05:38:05.060Z,16.87
2018-07-02T05:39:05.230Z,16.96
2018-07-02T05:40:05.428Z,16.91
2018-07-02T05:41:05.583Z,17.01
2018-07-02T05:42:05.790Z,17.04
2018-07-02T05:43:05.969Z,17.11
2018-07-02T05:44:06.144Z,17.19
2018-07-02T05:45:06.337Z,17.23
2018-07-02T05:46:06.508Z,17.39
2018-07-02T05:47:06.685Z,17.39
2018-07-02T05:48:06.864Z,17.57
2018-07-02T05:49:07.066Z,17.56
2018-07-02T05:50:07.298Z,17.57
2018-07-02T05:51:07.488Z,17.67
2018-07-02T05:52:07.800Z,17.59
2018-07-02T05:53:07.864Z,17.56
2018-07-02T05:54:08.032Z,17.64
2018-07-02T05:55:08.212Z,17.82
2018-07-02T05:56:08.389Z,18.00
2018-07-02T05:57:08.565Z,18.00
2018-07-02T05:58:08.742Z,18.07
2018-07-02T05:59:08.913Z,18.23
2018-07-02T06:00:09.139Z,18.22
2018-07-02T06:01:09.272Z,18.33
2018-07-02T06:02:09.451Z,18.33
2018-07-02T06:03:09.624Z,18.50
2018-07-02T06:04:09.831Z,18.53
2018-07-02T06:05:10.018Z,18.73
2018-07-02T06:06:10.199Z,18.71
2018-07-02T06:07:10.414Z,18.75
2018-07-02T06:08:10.646Z,18.99
2018-07-02T06:09:10.781Z,19.11
2018-07-02T06:10:10.961Z,19.09
2018-07-02T06:11:11.132Z,19.24
2018-07-02T06:12:11.312Z,19.29
2018-07-02T06:13:11.501Z,19.34
2018-07-02T06:14:11.669Z,19.39
2018-07-02T06:15:11.844Z,19.34
2018-07-02T06:16:12.025Z,19.56
2018-07-02T06:17:12.207Z,19.54
2018-07-02T06:18:12.387Z,19.76
2018-07-02T06:19:12.568Z,19.86
2018-07-02T06:20:12.780Z,19.85
2018-07-02T06:21:12.974Z,19.96
2018-07-02T06:22:13.164Z,20.06
2018-07-02T06:23:13.340Z,20.06
2018-07-02T06:24:13.519Z,20.18
2018-07-02T06:25:13.705Z,20.37
2018-07-02T06:26:13.882Z,20.41
2018-07-02T06:27:14.060Z,20.72
2018-07-02T06:28:14.246Z,20.93
2018-07-02T06:29:14.427Z,20.87
2018-07-02T06:30:14.628Z,20.99
2018-07-02T06:31:14.807Z,21.24
2018-07-02T06:32:14.990Z,21.66
2018-07-02T06:33:15.180Z,21.99
2018-07-02T06:34:15.358Z,22.25
2018-07-02T06:35:15.548Z,22.53
2018-07-02T06:36:16.829Z,22.94
2018-07-02T06:37:15.921Z,23.23
2018-07-02T06:38:16.097Z,23.47
2018-07-02T06:39:16.286Z,24.06
2018-07-02T06:40:16.479Z,24.43
2018-07-02T06:41:16.658Z,24.99
2018-07-02T06:42:16.933Z,25.53
2018-07-02T06:43:16.985Z,26.02
2018-07-02T06:44:17.173Z,26.18
2018-07-02T06:45:17.355Z,26.63
2018-07-02T06:46:17.540Z,27.05
2018-07-02T06:47:17.724Z,27.63
2018-07-02T06:48:17.907Z,28.35
2018-07-02T06:49:18.096Z,28.38
2018-07-02T06:50:18.287Z,28.79
2018-07-02T06:51:18.474Z,29.23
2018-07-02T06:52:18.667Z,29.22
2018-07-02T06:53:18.855Z,29.38
2018-07-02T06:54:19.047Z,29.79
2018-07-02T06:55:19.232Z,29.93
2018-07-02T06:56:19.426Z,30.08
2018-07-02T06:57:19.614Z,30.78
2018-07-02T06:58:19.803Z,31.31
2018-07-02T06:59:19.990Z,31.17
2018-07-02T07:00:20.181Z,31.10
2018-07-02T07:01:20.384Z,31.54
2018-07-02T07:02:20.705Z,31.87
2018-07-02T07:03:20.822Z,32.23
2018-07-02T07:04:23.796Z,32.53
2018-07-02T07:05:22.761Z,32.45
2018-07-02T07:06:24.080Z,32.74
2018-07-02T07:07:23.111Z,32.64
2018-07-02T07:08:25.448Z,33.07
2018-07-02T07:09:24.518Z,33.12
2018-07-02T07:10:21.937Z,33.19
2018-07-02T07:11:22.125Z,32.96
2018-07-02T07:12:22.320Z,33.43
2018-07-02T07:13:22.648Z,33.46
2018-07-02T07:14:22.771Z,33.80
2018-07-02T07:15:22.837Z,33.74
2018-07-02T07:16:23.028Z,33.79
2018-07-02T07:17:23.220Z,33.95
2018-07-02T07:18:23.414Z,34.20
2018-07-02T07:19:23.610Z,33.98
2018-07-02T07:20:23.938Z,33.89
2018-07-02T07:21:24.069Z,34.06
2018-07-02T07:22:24.273Z,34.21
2018-07-02T07:23:24.339Z,34.18
2018-07-02T07:24:24.530Z,33.52
2018-07-02T07:25:24.715Z,33.57
2018-07-02T07:26:24.906Z,33.84
2018-07-02T07:27:25.097Z,33.86
2018-07-02T07:28:25.298Z,34.10
2018-07-02T07:29:25.515Z,34.60
2018-07-02T07:30:26.010Z,34.57
2018-07-02T07:31:25.850Z,34.55
2018-07-02T07:32:26.043Z,34.62
2018-07-02T07:33:26.227Z,34.77
2018-07-02T07:34:26.413Z,34.96
2018-07-02T07:35:26.610Z,35.52
2018-07-02T07:36:26.815Z,36.05
2018-07-02T07:37:27.065Z,36.31
2018-07-02T07:38:27.240Z,36.73
2018-07-02T07:39:27.444Z,37.64
2018-07-02T07:40:27.639Z,37.89
2018-07-02T07:41:27.830Z,38.42
2018-07-02T07:42:28.021Z,38.99
2018-07-02T07:43:28.208Z,39.38
2018-07-02T07:44:28.408Z,39.55
2018-07-02T07:45:28.596Z,38.96
2018-07-02T07:46:28.785Z,39.14
2018-07-02T07:47:28.987Z,38.42
2018-07-02T07:48:29.161Z,38.65
2018-07-02T07:49:29.355Z,39.24
2018-07-02T07:50:29.547Z,39.22
2018-07-02T07:51:29.756Z,39.56
2018-07-02T07:52:29.940Z,39.07
2018-07-02T07:53:30.135Z,38.15
2018-07-02T07:54:30.408Z,38.60
2018-07-02T07:55:30.473Z,38.89
2018-07-02T07:56:30.679Z,39.30
2018-07-02T07:57:33.611Z,39.06
2018-07-02T07:58:33.039Z,38.96
2018-07-02T07:59:33.127Z,39.33
2018-07-02T08:00:32.828Z,39.62
2018-07-02T08:01:34.964Z,39.90
2018-07-02T08:02:32.164Z,38.69
2018-07-02T08:03:32.055Z,39.18
2018-07-02T08:04:32.225Z,39.24
2018-07-02T08:05:32.915Z,39.38
2018-07-02T08:06:32.627Z,39.55
2018-07-02T08:07:32.829Z,39.74
2018-07-02T08:08:33.040Z,40.28
2018-07-02T08:09:33.212Z,40.12
2018-07-02T08:10:33.418Z,40.20
2018-07-02T08:11:33.598Z,40.20
2018-07-02T08:12:33.794Z,40.49
2018-07-02T08:13:33.980Z,40.78
2018-07-02T08:14:34.165Z,40.88
2018-07-02T08:15:34.360Z,40.66
2018-07-02T08:16:34.547Z,40.35
2018-07-02T08:17:34.742Z,40.87
2018-07-02T08:18:34.943Z,40.06
2018-07-02T08:19:37.080Z,40.18
2018-07-02T08:20:36.502Z,40.58
2018-07-02T08:21:35.794Z,40.59
2018-07-02T08:22:35.809Z,40.30
2018-07-02T08:23:35.757Z,40.16
2018-07-02T08:24:36.061Z,40.69
2018-07-02T08:25:36.090Z,41.04
2018-07-02T08:26:36.293Z,40.30
2018-07-02T08:27:36.479Z,40.47
2018-07-02T08:28:36.671Z,40.23
2018-07-02T08:29:36.866Z,40.44
2018-07-02T08:30:37.072Z,40.34
2018-07-02T08:31:37.272Z,39.03
2018-07-02T08:32:37.462Z,38.89
2018-07-02T08:33:37.672Z,38.80
2018-07-02T08:34:37.891Z,39.02
2018-07-02T08:35:38.114Z,39.38
2018-07-02T08:36:38.315Z,39.44
2018-07-02T08:37:38.615Z,39.24
2018-07-02T08:38:38.684Z,39.71
2018-07-02T08:39:38.964Z,39.36
2018-07-02T08:40:39.093Z,39.00
2018-07-02T08:41:39.329Z,39.24
2018-07-02T08:42:39.509Z,39.68
2018-07-02T08:43:39.764Z,39.96
2018-07-02T08:44:39.951Z,39.43
2018-07-02T08:45:40.233Z,39.24
2018-07-02T08:46:40.326Z,38.99
2018-07-02T08:47:40.492Z,39.22
2018-07-02T08:48:40.699Z,39.68
2018-07-02T08:49:40.894Z,39.87
2018-07-02T08:50:41.109Z,39.85
2018-07-02T08:51:41.326Z,39.53
2018-07-02T08:52:41.548Z,39.40
2018-07-02T08:53:41.724Z,38.95
2018-07-02T08:54:41.919Z,39.30
2018-07-02T08:55:42.122Z,39.81
2018-07-02T08:56:42.308Z,39.26
2018-07-02T08:57:42.512Z,38.77
2018-07-02T08:58:42.705Z,38.87
2018-07-02T08:59:42.903Z,39.17
2018-07-02T09:00:43.097Z,39.06
2018-07-02T09:01:43.292Z,38.77
2018-07-02T09:02:43.478Z,38.67
2018-07-02T09:03:43.670Z,38.97
2018-07-02T09:04:43.862Z,39.53
2018-07-02T09:05:44.056Z,39.24
2018-07-02T09:06:44.286Z,38.74
2018-07-02T09:07:44.444Z,38.27
2018-07-02T09:08:44.642Z,38.67
2018-07-02T09:09:44.878Z,38.65
2018-07-02T09:10:45.032Z,39.21
2018-07-02T09:11:45.209Z,39.55
2018-07-02T09:12:45.397Z,39.15
2018-07-02T09:13:45.597Z,39.09
2018-07-02T09:14:45.813Z,39.41
2018-07-02T09:15:45.981Z,39.56
2018-07-02T09:16:46.177Z,39.60
2018-07-02T09:17:46.424Z,39.21
2018-07-02T09:18:46.554Z,38.54
2018-07-02T09:19:46.748Z,38.87
2018-07-02T09:20:46.963Z,38.79
2018-07-02T09:21:47.133Z,38.74
2018-07-02T09:22:47.325Z,38.61
2018-07-02T09:23:47.574Z,38.54
2018-07-02T09:24:47.736Z,38.68
2018-07-02T09:25:47.960Z,38.42
2018-07-02T09:26:48.337Z,38.33
2018-07-02T09:27:48.351Z,38.02
2018-07-02T09:28:48.542Z,37.89
2018-07-02T09:29:48.980Z,38.11
2018-07-02T09:30:48.961Z,38.57
2018-07-02T09:31:49.272Z,39.09
2018-07-02T09:32:49.339Z,39.65
2018-07-02T09:33:49.567Z,40.11
2018-07-02T09:34:49.800Z,39.21
2018-07-02T09:35:49.989Z,39.02
2018-07-02T09:36:50.185Z,38.97
2018-07-02T09:37:50.667Z,38.87
2018-07-02T09:38:50.581Z,38.83
2018-07-02T09:39:50.771Z,37.74
2018-07-02T09:40:50.962Z,38.04
2018-07-02T09:41:51.148Z,38.64
2018-07-02T09:42:51.343Z,38.57
2018-07-02T09:43:51.540Z,38.64
2018-07-02T09:44:51.764Z,38.23
2018-07-02T09:45:51.953Z,37.94
2018-07-02T09:46:53.355Z,37.51
2018-07-02T09:47:54.269Z,37.97
2018-07-02T09:48:54.812Z,37.83
2018-07-02T09:49:54.291Z,38.11
2018-07-02T09:50:53.461Z,38.19
2018-07-02T09:51:54.451Z,38.36
2018-07-02T09:52:54.962Z,37.96
2018-07-02T09:53:55.364Z,37.87
2018-07-02T09:54:59.571Z,37.83
2018-07-02T09:55:56.146Z,37.89
2018-07-02T09:56:54.381Z,37.02
2018-07-02T09:57:57.538Z,37.29
2018-07-02T09:58:55.606Z,37.36
2018-07-02T09:59:56.551Z,36.73
2018-07-02T10:00:54.582Z,36.21
2018-07-02T10:01:54.781Z,35.22
2018-07-02T10:02:54.971Z,34.51
2018-07-02T10:03:55.160Z,34.77
2018-07-02T10:04:55.351Z,34.73
2018-07-02T10:05:55.551Z,34.51
2018-07-02T10:06:55.752Z,34.38
2018-07-02T10:07:55.959Z,34.08
2018-07-02T10:08:56.161Z,33.96
2018-07-02T10:09:56.328Z,33.74
2018-07-02T10:10:56.517Z,33.65
2018-07-02T10:11:56.899Z,33.22
2018-07-02T10:12:56.910Z,33.05
2018-07-02T10:13:57.092Z,33.02
2018-07-02T10:14:57.289Z,32.64
2018-07-02T10:15:57.470Z,32.07
2018-07-02T10:16:57.664Z,31.78
2018-07-02T10:17:57.853Z,31.46
2018-07-02T10:18:58.036Z,31.09
2018-07-02T10:19:58.217Z,31.02
2018-07-02T10:20:58.404Z,30.91
2018-07-02T10:21:58.590Z,30.87
2018-07-02T10:22:58.778Z,30.81
2018-07-02T10:23:59.008Z,30.84
2018-07-02T10:24:59.158Z,30.66
2018-07-02T10:25:59.421Z,30.75
2018-07-02T10:26:59.535Z,30.59
2018-07-02T10:27:59.738Z,30.47
2018-07-02T10:28:59.934Z,30.25
2018-07-02T10:30:00.120Z,30.24
2018-07-02T10:31:00.339Z,30.34
2018-07-02T10:32:00.490Z,30.13
2018-07-02T10:33:00.676Z,30.10
2018-07-02T10:34:00.867Z,30.02
2018-07-02T10:35:01.060Z,30.03
2018-07-02T10:36:01.241Z,30.09
2018-07-02T10:37:01.424Z,29.88
2018-07-02T10:38:01.607Z,29.76
2018-07-02T10:39:01.827Z,29.94
2018-07-02T10:40:02.260Z,29.75
2018-07-02T10:41:02.148Z,29.90
2018-07-02T10:42:02.335Z,30.08
2018-07-02T10:43:02.517Z,30.25
2018-07-02T10:44:02.710Z,30.39
2018-07-02T10:45:02.899Z,30.44
2018-07-02T10:46:03.149Z,30.44
2018-07-02T10:47:03.225Z,30.31
2018-07-02T10:48:03.409Z,30.50
2018-07-02T10:49:03.611Z,30.66
2018-07-02T10:50:03.789Z,30.35
2018-07-02T10:51:03.982Z,30.10
2018-07-02T10:52:04.175Z,30.09
2018-07-02T10:53:04.362Z,30.00
2018-07-02T10:54:04.573Z,29.90
2018-07-02T10:55:04.756Z,29.88
2018-07-02T10:56:04.940Z,29.97
2018-07-02T10:57:05.121Z,30.06
2018-07-02T10:58:05.301Z,30.12
2018-07-02T10:59:05.483Z,30.27
2018-07-02T11:00:05.662Z,30.09
2018-07-02T11:01:05.855Z,30.09
2018-07-02T11:02:06.054Z,29.95
2018-07-02T11:03:08.074Z,29.82
2018-07-02T11:04:07.272Z,29.71
2018-07-02T11:05:06.530Z,29.53
2018-07-02T11:06:07.148Z,29.60
2018-07-02T11:07:09.016Z,29.61
2018-07-02T11:08:08.827Z,29.65
2018-07-02T11:09:08.796Z,29.78
2018-07-02T11:10:09.520Z,29.81
2018-07-02T11:11:08.902Z,29.87
2018-07-02T11:12:11.159Z,29.54
2018-07-02T11:13:10.742Z,29.41
2018-07-02T11:14:12.174Z,29.34
2018-07-02T11:15:09.144Z,29.47
2018-07-02T11:16:11.313Z,29.63
2018-07-02T11:17:10.554Z,29.31
2018-07-02T11:18:10.909Z,29.16
2018-07-02T11:19:10.830Z,29.14
2018-07-02T11:20:09.406Z,29.20
2018-07-02T11:21:09.696Z,29.36
2018-07-02T11:22:09.870Z,29.29
2018-07-02T11:23:10.169Z,29.16
2018-07-02T11:24:09.984Z,29.12
2018-07-02T11:25:10.171Z,28.98
2018-07-02T11:26:10.358Z,29.17
2018-07-02T11:27:10.553Z,29.23
2018-07-02T11:28:10.996Z,29.39
2018-07-02T11:29:10.975Z,29.42
2018-07-02T11:30:11.042Z,29.53
2018-07-02T11:31:11.230Z,29.49
2018-07-02T11:32:11.414Z,29.60
2018-07-02T11:33:11.610Z,29.71
2018-07-02T11:34:12.499Z,29.66
2018-07-02T11:35:11.941Z,29.61
2018-07-02T11:36:12.136Z,29.45
2018-07-02T11:37:12.329Z,29.36
2018-07-02T11:38:12.510Z,29.29
2018-07-02T11:39:12.697Z,29.38
2018-07-02T11:40:13.097Z,29.54
2018-07-02T11:41:13.656Z,29.60
2018-07-02T11:42:14.776Z,29.79
2018-07-02T11:43:13.724Z,29.65
2018-07-02T11:44:13.643Z,29.69
2018-07-02T11:45:14.116Z,29.73
2018-07-02T11:46:13.819Z,29.65
2018-07-02T11:47:14.003Z,29.81
2018-07-02T11:48:14.252Z,29.63
2018-07-02T11:49:14.410Z,29.51
2018-07-02T11:50:14.605Z,29.51
2018-07-02T11:51:14.793Z,29.54
2018-07-02T11:52:14.984Z,29.45
2018-07-02T11:53:15.169Z,29.20
2018-07-02T11:54:15.360Z,29.23
2018-07-02T11:55:15.545Z,29.35
2018-07-02T11:56:15.735Z,29.34
2018-07-02T11:57:15.929Z,29.26
2018-07-02T11:58:16.108Z,29.23
2018-07-02T11:59:16.321Z,29.13
2018-07-02T12:00:16.501Z,29.05
2018-07-02T12:01:16.692Z,28.89
2018-07-02T12:02:16.883Z,28.97
2018-07-02T12:03:17.077Z,29.08
2018-07-02T12:04:17.284Z,29.08
2018-07-02T12:05:17.447Z,29.14
2018-07-02T12:06:17.641Z,29.10
2018-07-02T12:07:17.825Z,29.05
2018-07-02T12:08:18.007Z,28.98
2018-07-02T12:09:18.196Z,28.88
2018-07-02T12:10:19.331Z,28.75
2018-07-02T12:11:18.526Z,28.79
2018-07-02T12:12:21.909Z,28.94
2018-07-02T12:13:21.640Z,28.88
2018-07-02T12:14:21.744Z,28.84
2018-07-02T12:15:20.139Z,28.79
2018-07-02T12:16:20.503Z,28.69
2018-07-02T12:17:21.813Z,28.69
2018-07-02T12:18:19.728Z,28.69
2018-07-02T12:19:19.919Z,28.82
2018-07-02T12:20:20.104Z,28.84
2018-07-02T12:21:20.328Z,28.69
2018-07-02T12:22:20.706Z,28.75
2018-07-02T12:23:20.713Z,28.81
2018-07-02T12:24:20.903Z,28.97
2018-07-02T12:25:21.447Z,28.93
2018-07-02T12:26:21.464Z,28.91
2018-07-02T12:27:21.464Z,28.82
2018-07-02T12:28:21.645Z,28.44
2018-07-02T12:29:21.844Z,28.41
2018-07-02T12:30:22.250Z,28.45
2018-07-02T12:31:22.329Z,28.37
2018-07-02T12:32:22.422Z,28.42
2018-07-02T12:33:22.690Z,28.26
2018-07-02T12:34:22.826Z,28.25
2018-07-02T12:35:26.624Z,28.29
2018-07-02T12:36:23.237Z,28.35
2018-07-02T12:37:23.421Z,28.42
2018-07-02T12:38:23.672Z,28.42
2018-07-02T12:39:23.818Z,28.41
2018-07-02T12:40:24.004Z,28.48
2018-07-02T12:41:24.207Z,28.26
2018-07-02T12:42:24.394Z,28.29
2018-07-02T12:43:24.583Z,28.32
2018-07-02T12:44:24.776Z,28.44
2018-07-02T12:45:24.958Z,28.30
2018-07-02T12:46:25.142Z,28.35
2018-07-02T12:47:25.324Z,28.32
2018-07-02T12:48:25.513Z,28.29
2018-07-02T12:49:25.694Z,28.37
2018-07-02T12:50:25.877Z,28.29
2018-07-02T12:51:26.071Z,28.30
2018-07-02T12:52:27.589Z,28.30
2018-07-02T12:53:26.386Z,28.27
2018-07-02T12:54:27.587Z,28.30